Woodbury, TN (37190)

12:12 AM CST on December 21, 2014 (GMT -0600)
Cannon County High School - W4WBY | Change Station
CLOSE
Current Station
Personal Weather Station
Location: Woodbury, TN
Elevation: 722 ft
Nearby Weather Stations

Elev 722 ft 35.82 °N, 86.06 °W | Updated 19 minutes ago

Clear
Clear
25.8 °F
Feels Like 26 °F
N
0.0
Wind Variable Wind from ESE
Gusts 1.0 mph

Today
High -- | Low -- °F
--% Chance of Precip.
Yesterday
High -- | Low -- °F
Precip. -- in
6:50 AM 4:34 PM
Waning Crescent, 1% visible
Pressure 30.32 in
Visibility 8.0 miles
Clouds Clear
Windchill 26 °F
Dew Point 25 °F
Humidity 95%
Rainfall 0.00 in
Snow Depth Not available.
UV 0 out of 12
Pollen .10 out of 12
Air Quality Not available.
Flu Activity Not available.
METAR KMQY 210556Z AUTO 00000KT 8SM CLR M03/M04 A3028 RMK AO2 50000 T10271044 10044 21033 400881033 SLP268

More Conditions Fewer Conditions

Pressure 30.32 in
Visibility 8.0 miles
Clouds Clear
Windchill 26 °F
Dew Point 25 °F
Humidity 95%
Rainfall 0.00 in
Snow Depth Not available.
UV 0 out of 12
Pollen .10 out of 12
Air Quality Not available.
Flu Activity Not available.
METAR KMQY 210556Z AUTO 00000KT 8SM CLR M03/M04 A3028 RMK AO2 50000 T10271044 10044 21033 400881033 SLP268

More Conditions Fewer Conditions

10-Day Weather Forecast

Almanac

Astronomy

Dec. 21, 2014 Rise Set
Actual Time
Civil Twilight
Nautical Twilight
Astronomical Twilight
Moon
Length of Visible Light
Length of Day
Tomorrow will be .
, % of the Moon is Illuminated

Today's Extremes

State Highs State Lows

Community

WunderPhotos

Upload Photos

1,779,360 photos uploaded!

WunderBlogs® & News

Nearby

Air Quality

  Air Quality AQ Index Pollutant
Not available.

Snow Depth

Station Depth Elevation

Earthquake Activity

City Distance Mag. Time & Date
Minimum magnitude displayed is 2.5.

Coastal Water Temperatures

Place Temperature

Nearby Weather Stations